x

Columbia River Bar - 20nm West Of Columbia River Mouth (46029) Wave Buoy

10:50pm - Sat 22nd Nov 2014 All times are PST. -8 hours from GMT.

  • Sig Wave height 12.5ft
  • Swell Direction
  • Peak Period 14s
  • Average Period 8s
  • Wind
    18mph, 22mph gusts
  • Sea Temp 55°f
  • Air Temp 55°f
  • Sea Pressure 1021.4mb
  • Columbia River Bar - 20nm West Of Columbia River Mouth
  • Columbia River Bar - 20nm West Of Columbia River Mouth

More Historic Weather Station data

Upgrade to MSW Pro to gain access to the past 30 days of data for over 8000 Wavebouys and Weather Stations around the globe.

Join Pro

Comparision Forecast

View Surf forecast
   
Sat 11/22 10:50pm 12.5ft 14s 8s 18 22 mph 1021.4mb 55f 55f
9:50pm 12ft 14s 8s 18 20 mph 1020.9mb 55f 55f
8:50pm 12ft 13s 8s 16 20 mph 1020.4mb 56f 55f
7:50pm 13.5ft 12s 9s 16 20 mph 1019.7mb 56f 55f
6:50pm 12ft 14s 9s 16 20 mph 1019.2mb 56f 55f
5:50pm 11.5ft 13s 9s 11 20 mph 1018.5mb 56f 54f
4:50pm 11.5ft 15s 9s 11 16 mph 1017.9mb 55f 55f
3:50pm 13ft 16s 9s 11 16 mph 1016.8mb 55f 55f
2:50pm 13ft 16s 9s 18 22 mph 1016mb 56f 55f
1:50pm 13ft 16s 9s 16 20 mph 1015mb 55f 54f
12:50pm 12ft 16s 9s 16 18 mph 1013.6mb 55f 53f
11:50am 12ft 16s 9s 16 20 mph 1012.6mb 55f 53f
10:50am 11.5ft 16s 7s 18 25 mph 1011.4mb 55f 50f
9:50am 11.5ft 16s 7s 22 27 mph 1009.2mb 55f 52f
8:50am 11ft 11s 7s 20 25 mph 1008mb 55f 50f
7:50am 11.5ft 10s 8s 18 22 mph 1007mb 55f 51f
6:50am 10ft 9s 7s 25 29 mph 1006.3mb 55f 49f
5:50am 11.5ft 10s 8s 18 22 mph 1005.7mb 55f 55f
4:50am 11ft 9s 8s 13 18 mph 1005.8mb 55f 55f
3:50am 10.5ft 9s 7s 16 20 mph 1005.6mb 55f 55f
2:50am 12ft 10s 8s 18 20 mph 1005.2mb 55f 54f
1:50am 11.5ft 10s 8s 16 20 mph 1004.3mb 55f 54f
12:50am 13ft 10s 8s 16 20 mph 1003.6mb 55f 54f
Fri 11/21 11:50pm 14ft 11s 8s 20 25 mph 1002.8mb 55f 54f
10:50pm 14.5ft 10s 8s 18 25 mph 1002mb 55f 53f
9:50pm 14ft 10s 8s 20 25 mph 1001mb 55f 54f
8:50pm 16.5ft 11s 9s 20 27 mph 999.9mb 55f 55f
6:50pm 14.5ft 10s 8s 20 27 mph 998.4mb 55f 55f
5:50pm 16ft 10s 8s 20 25 mph 996.8mb 55f 54f
4:50pm 16ft 10s 8s 20 27 mph 995.5mb 55f 54f
3:50pm 16.5ft 10s 8s 22 29 mph 994.2mb 55f 55f
2:50pm 16ft 9s 7s 29 34 mph 993mb 55f 56f
1:50pm 16ft 8s 7s 38 47 mph 993.7mb 55f 55f
12:50pm 15ft 8s 7s 40 51 mph 995.3mb 55f 54f
11:50am 13ft 8s 6s 40 49 mph 997.5mb 55f 54f
10:50am 10ft 8s 6s 38 49 mph 999.8mb 55f 55f
9:50am 11ft 7s 6s 36 43 mph 1001.2mb 55f 55f
8:50am 11ft 7s 6s 31 38 mph 1003.1mb 55f 55f
7:50am 10ft 8s 6s 27 34 mph 1004.2mb 55f 55f
6:50am 9.5ft 13s 6s 25 29 mph 1005.6mb 55f 56f
5:50am 8.5ft 14s 6s 27 31 mph 1006.4mb 55f 56f
4:50am 9ft 13s 6s 25 29 mph 1007.7mb 55f 56f
3:50am 9ft 11s 6s 22 29 mph 1008.5mb 55f 56f
2:50am 9ft 11s 6s 25 29 mph 1009.6mb 55f 55f
1:50am 9ft 14s 6s 22 27 mph 1009.7mb 55f 56f
12:50am 9ft 13s 7s 25 29 mph 1010.4mb 55f 55f
Thu 11/20 11:50pm 9ft 9s 6s 25 29 mph 1010.1mb 55f 55f
10:50pm 10ft 13s 7s 22 27 mph 1010.9mb 55f 55f
9:50pm 10ft 14s 7s 22 27 mph 1011.4mb 55f 56f
8:50pm 11ft 10s 7s 20 25 mph 1012mb 55f 55f
7:50pm 10ft 14s 7s 22 27 mph 1012.4mb 55f 55f
6:50pm 10ft 10s 7s 22 27 mph 1011.9mb 55f 55f
5:50pm 9.5ft 10s 7s 22 27 mph 1012.1mb 55f 55f
4:50pm 9.5ft 14s 7s 18 22 mph 1012.5mb 55f 55f
3:50pm 9.5ft 10s 7s 20 22 mph 1012.8mb 55f 55f
2:50pm 9ft 10s 7s 20 22 mph 1012.5mb 55f 56f
1:50pm 9ft 9s 7s 20 27 mph 1012.4mb 55f 55f
12:50pm 10.5ft 11s 7s 16 20 mph 1012.8mb 55f 55f
11:50am 10ft 10s 7s 20 27 mph 1012.7mb 55f 55f
10:50am 10ft 11s 7s 22 27 mph 1013mb 55f 55f
9:50am 10ft 11s 7s 22 27 mph 1013mb 55f 55f
8:50am 11.5ft 11s 8s 20 25 mph 1013.1mb 55f 55f
7:50am 10ft 11s 8s 16 18 mph 1013.1mb 55f 56f
6:50am 10.5ft 10s 8s 13 16 mph 1012.9mb 55f 56f
5:50am 9.5ft 11s 8s 16 20 mph 1012.8mb 55f 56f
4:50am 10ft 11s 8s 13 18 mph 1012.9mb 55f 55f
3:50am 9.5ft 11s 8s 13 18 mph 1012.6mb 55f 55f
2:50am 9.5ft 11s 7s 18 22 mph 1012.4mb 55f 55f
1:50am 9.5ft 11s 7s 18 22 mph 1011.7mb 55f 56f
12:50am 9.5ft 11s 7s 20 25 mph 1011.2mb 55f 55f
Wed 11/19 11:50pm 10.5ft 10s 7s 18 25 mph 1010.5mb 55f 55f
10:50pm 10.5ft 11s 7s 22 29 mph 1009.4mb 55f 56f
9:50pm 10ft 12s 7s 22 27 mph 1008.4mb 55f 55f
8:50pm 8ft 10s 6s 27 34 mph 1007.7mb 55f 53f
7:50pm 7.5ft 11s 6s 22 27 mph 1007.8mb 55f 55f
6:50pm 8.5ft 11s 7s 22 27 mph 1007.8mb 55f 55f
5:50pm 8.5ft 10s 8s 20 25 mph 1008mb 55f 56f
4:50pm 8ft 11s 8s 13 16 mph 1008.1mb 55f 56f
3:50pm 7.5ft 11s 7s 16 20 mph 1007.7mb 55f 56f
2:50pm 8ft 11s 7s 18 22 mph 1007.7mb 55f 56f
1:50pm 7.5ft 12s 7s 18 20 mph 1007.9mb 55f 55f
12:50pm 7.5ft 12s 7s 13 16 mph 1008.8mb 55f 55f
11:50am 7.5ft 11s 7s 16 18 mph 1009.5mb 55f 55f
10:50am 7ft 11s 6s 20 22 mph 1010mb 55f 55f
9:50am 7.5ft 11s 7s 20 25 mph 1009.9mb 55f 55f
8:50am 7.5ft 10s 6s 20 22 mph 1010.3mb 55f 54f
7:50am 7ft 10s 6s 20 25 mph 1010.6mb 55f 54f